createdAt,value
2017-09-21T14:34:42.828Z,22.8
2017-09-21T14:36:23.728Z,21.9
2017-09-21T14:38:04.906Z,21.6
2017-09-21T14:39:06.586Z,21.7
2017-09-21T14:40:08.037Z,21.9
2017-09-21T14:41:09.475Z,22.1
2017-09-21T14:42:10.921Z,22.2
2017-09-21T14:43:12.411Z,22.2
2017-09-21T14:44:13.817Z,22.3
2017-09-21T14:45:15.222Z,22.4
2017-09-21T14:46:16.650Z,22.5
2017-09-21T14:47:18.064Z,22.5
2017-09-21T14:48:20.309Z,22.6
2017-09-21T14:49:21.723Z,22.6
2017-09-21T14:50:23.663Z,22.5
2017-09-21T14:51:25.081Z,22.4
2017-09-21T14:52:26.480Z,22.5
2017-09-21T14:53:27.980Z,22.6
2017-09-21T14:54:29.395Z,22.7
2017-09-21T14:55:30.920Z,22.5
2017-09-21T14:56:32.352Z,22.5
2017-09-21T14:57:33.805Z,22.5
2017-09-21T14:58:35.265Z,22.6
2017-09-21T14:59:36.727Z,22.4
2017-09-21T15:00:38.237Z,22.3
2017-09-21T15:01:39.634Z,22.3
2017-09-21T15:02:42.010Z,22.3
2017-09-21T15:03:43.471Z,22.2
2017-09-21T15:04:45.077Z,22.1
2017-09-21T15:05:46.503Z,22.1
2017-09-21T15:06:47.935Z,22.1
2017-09-21T15:07:49.399Z,22.0
2017-09-21T15:09:32.202Z,21.9
2017-09-21T15:10:34.540Z,22.0
2017-09-21T15:11:36.683Z,21.9
2017-09-21T15:12:38.641Z,22.0
2017-09-21T15:13:41.145Z,21.7
2017-09-21T15:14:43.028Z,21.7
2017-09-21T15:15:44.778Z,21.6
2017-09-21T15:16:46.710Z,21.7
2017-09-21T15:17:48.618Z,21.8
2017-09-21T15:18:50.428Z,21.8
2017-09-21T15:19:52.212Z,21.8
2017-09-21T15:20:54.289Z,21.8
2017-09-21T15:21:56.142Z,21.8
2017-09-21T15:22:57.836Z,21.9
2017-09-21T15:23:59.808Z,21.8
2017-09-21T15:25:01.666Z,21.8
2017-09-21T15:26:03.689Z,21.7
2017-09-21T15:27:05.414Z,21.6
2017-09-21T15:28:07.088Z,21.6
2017-09-21T15:29:08.913Z,21.6
2017-09-21T15:30:10.770Z,21.6
2017-09-21T15:31:12.747Z,21.6
2017-09-21T15:32:14.521Z,21.5
2017-09-21T15:33:16.681Z,21.7
2017-09-21T15:34:18.385Z,21.7
2017-09-21T15:35:20.109Z,21.8
2017-09-21T15:36:22.028Z,21.6
2017-09-21T15:37:23.934Z,21.8
2017-09-21T15:38:25.718Z,21.8
2017-09-21T15:39:27.705Z,21.9
2017-09-21T15:41:10.347Z,21.9
2017-09-21T15:42:12.347Z,21.8
2017-09-21T15:43:14.562Z,21.9
2017-09-21T15:44:16.638Z,21.7
2017-09-21T15:45:19.140Z,21.7
2017-09-21T15:46:21.917Z,21.5
2017-09-21T15:47:24.829Z,21.5
2017-09-21T15:48:27.291Z,21.4
2017-09-21T15:49:29.457Z,21.4
2017-09-21T15:50:31.530Z,21.4
2017-09-21T15:51:33.958Z,21.4
2017-09-21T15:52:36.048Z,21.2
2017-09-21T15:53:38.451Z,21.2
2017-09-21T15:54:40.986Z,21.1
2017-09-21T15:55:43.481Z,21.0
2017-09-21T15:56:45.927Z,21.0
2017-09-21T15:57:48.656Z,21.0
2017-09-21T15:58:50.735Z,21.0
2017-09-21T15:59:52.753Z,21.0
2017-09-21T16:00:54.946Z,20.9
2017-09-21T16:01:56.985Z,20.9
2017-09-21T16:02:59.077Z,21.0
2017-09-21T16:04:01.125Z,21.0
2017-09-21T16:05:03.284Z,21.1
2017-09-21T16:06:05.283Z,21.1
2017-09-21T16:07:07.292Z,21.0
2017-09-21T16:08:10.224Z,20.9
2017-09-21T16:09:12.301Z,20.8
2017-09-21T16:10:14.358Z,20.8
2017-09-21T16:11:56.700Z,20.7
2017-09-21T16:12:58.769Z,20.7
2017-09-21T16:14:00.958Z,20.7
2017-09-21T16:15:02.761Z,20.3
2017-09-21T16:16:04.695Z,20.3
2017-09-21T16:17:07.770Z,20.2
2017-09-21T16:18:10.043Z,20.2
2017-09-21T16:19:12.169Z,20.2
2017-09-21T16:20:14.410Z,20.2
2017-09-21T16:21:16.580Z,20.3
2017-09-21T16:22:19.042Z,20.3
2017-09-21T16:23:21.723Z,20.3
2017-09-21T16:24:24.115Z,20.3
2017-09-21T16:25:26.740Z,20.2
2017-09-21T16:26:28.742Z,20.3
2017-09-21T16:27:31.016Z,20.2
2017-09-21T16:28:32.980Z,20.2
2017-09-21T16:29:35.213Z,20.2
2017-09-21T16:30:37.319Z,20.1
2017-09-21T16:31:39.800Z,19.9
2017-09-21T16:32:42.617Z,19.8
2017-09-21T16:33:44.707Z,19.9
2017-09-21T16:34:47.008Z,19.8
2017-09-21T16:35:49.343Z,19.7
2017-09-21T16:36:51.541Z,19.7
2017-09-21T16:37:53.681Z,19.6
2017-09-21T16:38:56.093Z,19.5
2017-09-21T16:39:58.119Z,19.6
2017-09-21T16:41:00.223Z,19.6
2017-09-21T16:42:42.889Z,19.5
2017-09-21T16:43:44.750Z,19.5
2017-09-21T16:44:46.474Z,19.6
2017-09-21T16:45:48.581Z,19.6
2017-09-21T16:46:50.841Z,19.4
2017-09-21T16:47:52.865Z,19.4
2017-09-21T16:48:55.098Z,19.4
2017-09-21T16:49:57.556Z,19.3
2017-09-21T16:50:59.861Z,19.2
2017-09-21T16:52:02.609Z,19.1
2017-09-21T16:53:05.001Z,19.1
2017-09-21T16:54:07.284Z,19.0
2017-09-21T16:55:09.147Z,18.9
2017-09-21T16:56:11.062Z,18.8
2017-09-21T16:57:12.897Z,18.6
2017-09-21T16:58:15.446Z,18.5
2017-09-21T16:59:17.667Z,18.4
2017-09-21T17:00:20.040Z,18.4
2017-09-21T17:01:22.198Z,18.4
2017-09-21T17:02:24.145Z,18.5
2017-09-21T17:03:26.197Z,18.5
2017-09-21T17:04:28.140Z,18.5
2017-09-21T17:05:30.180Z,18.6
2017-09-21T17:06:32.407Z,18.7
2017-09-21T17:07:35.218Z,18.4
2017-09-21T17:08:37.183Z,18.5
2017-09-21T17:09:39.186Z,18.6
2017-09-21T17:10:41.442Z,18.6
2017-09-21T17:11:43.484Z,18.3
2017-09-21T17:13:27.166Z,18.4
2017-09-21T17:14:28.881Z,18.5
2017-09-21T17:15:31.296Z,18.4
2017-09-21T17:16:33.172Z,18.3
2017-09-21T17:17:35.095Z,18.2
2017-09-21T17:18:37.446Z,18.2
2017-09-21T17:19:39.388Z,18.1
2017-09-21T17:20:41.688Z,18.0
2017-09-21T17:21:43.884Z,18.0
2017-09-21T17:22:46.033Z,17.8
2017-09-21T17:23:48.189Z,17.7
2017-09-21T17:24:50.381Z,17.6
2017-09-21T17:25:53.119Z,17.6
2017-09-21T17:26:55.257Z,17.6
2017-09-21T17:27:57.105Z,17.8
2017-09-21T17:28:59.308Z,17.9
2017-09-21T17:30:01.525Z,17.8
2017-09-21T17:31:03.833Z,17.6
2017-09-21T17:32:06.233Z,17.5
2017-09-21T17:33:08.536Z,17.6
2017-09-21T17:34:10.681Z,17.6
2017-09-21T17:35:12.613Z,17.7
2017-09-21T17:36:14.732Z,17.5
2017-09-21T17:37:16.753Z,17.6
2017-09-21T17:38:18.670Z,17.6
2017-09-21T17:39:20.866Z,17.5
2017-09-21T17:40:22.822Z,17.5
2017-09-21T17:41:24.994Z,17.4
2017-09-21T17:42:27.498Z,17.3
2017-09-21T17:44:13.600Z,17.3
2017-09-21T17:45:15.248Z,17.3
2017-09-21T17:46:17.528Z,17.2
2017-09-21T17:47:19.276Z,17.5
2017-09-21T17:48:21.507Z,17.2
2017-09-21T17:49:23.418Z,17.3
2017-09-21T17:50:25.336Z,17.3
2017-09-21T17:51:26.947Z,17.5
2017-09-21T17:52:28.921Z,17.2
2017-09-21T17:53:30.566Z,17.4
2017-09-21T17:54:32.396Z,17.5
2017-09-21T17:55:34.410Z,17.3
2017-09-21T17:56:36.250Z,17.1
2017-09-21T17:57:37.994Z,17.5
2017-09-21T17:58:39.696Z,17.4
2017-09-21T17:59:41.386Z,17.2
2017-09-21T18:00:43.399Z,17.2
2017-09-21T18:01:45.277Z,16.9
2017-09-21T18:02:47.475Z,17.2
2017-09-21T18:03:49.515Z,17.1
2017-09-21T18:04:51.292Z,16.9
2017-09-21T18:05:53.081Z,17.2
2017-09-21T18:06:54.996Z,16.8
2017-09-21T18:07:56.706Z,17.0
2017-09-21T18:08:58.474Z,17.1
2017-09-21T18:09:59.978Z,16.8
2017-09-21T18:11:01.496Z,16.8
2017-09-21T18:12:03.595Z,17.0
2017-09-21T18:13:05.636Z,16.9
2017-09-21T18:15:48.490Z,17.2
2017-09-21T18:16:50.265Z,17.0
2017-09-21T18:18:12.408Z,17.1
2017-09-21T18:19:14.263Z,16.9
2017-09-21T18:20:36.820Z,17.0
2017-09-21T18:21:39.077Z,16.6
2017-09-21T18:23:01.496Z,16.7
2017-09-21T18:24:03.103Z,16.6
2017-09-21T18:25:04.585Z,16.7
2017-09-21T18:26:06.080Z,16.8
2017-09-21T18:27:07.547Z,16.8
2017-09-21T18:28:09.128Z,16.8
2017-09-21T18:29:10.680Z,16.8
2017-09-21T18:30:12.177Z,16.8
2017-09-21T18:31:13.607Z,16.9
2017-09-21T18:32:15.130Z,16.8
2017-09-21T18:33:16.587Z,16.8
2017-09-21T18:34:18.235Z,16.7
2017-09-21T18:35:19.673Z,16.6
2017-09-21T18:36:21.104Z,16.5
2017-09-21T18:37:22.610Z,16.2
2017-09-21T18:38:24.036Z,16.3
2017-09-21T18:39:25.548Z,16.4
2017-09-21T18:40:26.984Z,16.4
2017-09-21T18:41:28.376Z,16.5
2017-09-21T18:42:29.834Z,16.4
2017-09-21T18:43:31.271Z,16.5
2017-09-21T18:44:32.708Z,16.4
2017-09-21T18:45:34.128Z,16.3
2017-09-21T18:46:35.556Z,16.5
2017-09-21T18:47:36.959Z,16.4
2017-09-21T18:48:38.382Z,16.3
2017-09-21T18:49:39.777Z,16.4
2017-09-21T18:50:41.306Z,16.3
2017-09-21T18:51:42.747Z,16.3
2017-09-21T18:52:44.189Z,16.3
2017-09-21T18:54:26.123Z,16.3
2017-09-21T18:55:27.936Z,16.3
2017-09-21T18:56:50.330Z,16.2
2017-09-21T18:57:52.296Z,16.1
2017-09-21T18:59:14.586Z,16.1
2017-09-21T19:00:16.501Z,16.1
2017-09-21T19:01:18.318Z,16.1
2017-09-21T19:02:20.026Z,16.0
2017-09-21T19:03:21.885Z,16.0
2017-09-21T19:04:24.077Z,16.2
2017-09-21T19:05:26.121Z,16.1
2017-09-21T19:06:28.089Z,16.1
2017-09-21T19:07:30.191Z,16.1
2017-09-21T19:08:32.944Z,16.1
2017-09-21T19:09:35.250Z,15.9
2017-09-21T19:10:37.671Z,15.9
2017-09-21T19:11:39.853Z,16.0
2017-09-21T19:12:41.880Z,16.0
2017-09-21T19:13:44.023Z,16.2
2017-09-21T19:14:45.904Z,16.1
2017-09-21T19:15:48.076Z,16.2
2017-09-21T19:16:50.127Z,16.2
2017-09-21T19:17:52.467Z,16.2
2017-09-21T19:18:54.610Z,16.0
2017-09-21T19:19:56.449Z,16.0
2017-09-21T19:20:58.475Z,16.1
2017-09-21T19:22:00.455Z,16.0
2017-09-21T19:23:02.626Z,16.0
2017-09-21T19:24:04.413Z,15.9
2017-09-21T19:25:06.425Z,15.9
2017-09-21T19:26:08.847Z,15.8
2017-09-21T19:27:10.780Z,15.8
2017-09-21T19:28:13.100Z,15.8
2017-09-21T19:29:55.553Z,15.8
2017-09-21T19:30:57.926Z,15.8
2017-09-21T19:31:59.964Z,15.8
2017-09-21T19:33:02.230Z,15.9
2017-09-21T19:34:04.217Z,15.7
2017-09-21T19:35:06.414Z,15.6
2017-09-21T19:36:08.498Z,15.5
2017-09-21T19:37:10.604Z,15.5
2017-09-21T19:38:12.787Z,15.6
2017-09-21T19:39:14.941Z,15.6
2017-09-21T19:40:17.030Z,15.6
2017-09-21T19:41:19.120Z,15.6
2017-09-21T19:42:21.067Z,15.4
2017-09-21T19:43:23.140Z,15.1
2017-09-21T19:44:25.974Z,15.2
2017-09-21T19:45:28.947Z,15.4
2017-09-21T19:46:31.157Z,15.5
2017-09-21T19:47:33.462Z,15.5
2017-09-21T19:48:35.396Z,15.7
2017-09-21T19:49:37.894Z,15.6
2017-09-21T19:50:40.311Z,15.7
2017-09-21T19:51:42.067Z,15.4
2017-09-21T19:52:44.055Z,15.4
2017-09-21T19:53:46.097Z,15.5
2017-09-21T19:54:48.409Z,15.6
2017-09-21T19:55:50.434Z,15.4
2017-09-21T19:56:52.937Z,15.5
2017-09-21T19:57:54.737Z,15.5
2017-09-21T19:58:56.876Z,15.4
2017-09-21T20:00:39.730Z,15.5
